sensor_id;sensor_type;location;lat;lon;timestamp;temperature;humidity
20481;DHT22;10399;50.754;3.366;2022-09-09T00:02:22;17.40;99.90
20481;DHT22;10399;50.754;3.366;2022-09-09T00:07:51;17.30;99.90
20481;DHT22;10399;50.754;3.366;2022-09-09T00:10:52;17.30;99.90
20481;DHT22;10399;50.754;3.366;2022-09-09T00:16:17;17.00;99.90
20481;DHT22;10399;50.754;3.366;2022-09-09T00:19:01;16.90;99.90
20481;DHT22;10399;50.754;3.366;2022-09-09T00:21:43;17.00;99.90
20481;DHT22;10399;50.754;3.366;2022-09-09T00:24:26;17.10;99.90
20481;DHT22;10399;50.754;3.366;2022-09-09T00:27:10;17.20;99.90
20481;DHT22;10399;50.754;3.366;2022-09-09T00:29:54;17.10;99.90
20481;DHT22;10399;50.754;3.366;2022-09-09T00:32:24;17.00;99.90
20481;DHT22;10399;50.754;3.366;2022-09-09T00:35:04;16.90;99.90
20481;DHT22;10399;50.754;3.366;2022-09-09T00:37:44;17.20;99.90
20481;DHT22;10399;50.754;3.366;2022-09-09T00:40:38;17.00;99.90
20481;DHT22;10399;50.754;3.366;2022-09-09T00:43:15;17.00;99.90
20481;DHT22;10399;50.754;3.366;2022-09-09T01:02:29;17.10;99.90
20481;DHT22;10399;50.754;3.366;2022-09-09T01:05:05;16.80;99.90
20481;DHT22;10399;50.754;3.366;2022-09-09T01:07:33;17.00;99.90
20481;DHT22;10399;50.754;3.366;2022-09-09T01:10:07;16.90;99.90
20481;DHT22;10399;50.754;3.366;2022-09-09T01:12:42;16.80;99.90
20481;DHT22;10399;50.754;3.366;2022-09-09T01:15:30;16.80;99.90
20481;DHT22;10399;50.754;3.366;2022-09-09T01:20:44;16.80;99.90
20481;DHT22;10399;50.754;3.366;2022-09-09T01:26:45;16.80;99.90
20481;DHT22;10399;50.754;3.366;2022-09-09T01:29:17;16.80;99.90
20481;DHT22;10399;50.754;3.366;2022-09-09T01:34:24;16.80;99.90
20481;DHT22;10399;50.754;3.366;2022-09-09T01:37:01;16.80;99.90
20481;DHT22;10399;50.754;3.366;2022-09-09T01:39:29;16.90;99.90
20481;DHT22;10399;50.754;3.366;2022-09-09T01:41:57;16.90;99.90
20481;DHT22;10399;50.754;3.366;2022-09-09T01:44:25;16.80;99.90
20481;DHT22;10399;50.754;3.366;2022-09-09T01:46:53;16.80;99.90
20481;DHT22;10399;50.754;3.366;2022-09-09T01:49:20;16.80;99.90
20481;DHT22;10399;50.754;3.366;2022-09-09T01:51:50;16.70;99.90
20481;DHT22;10399;50.754;3.366;2022-09-09T01:54:20;16.90;99.90
20481;DHT22;10399;50.754;3.366;2022-09-09T02:02:16;16.80;99.90
20481;DHT22;10399;50.754;3.366;2022-09-09T02:04:49;16.60;99.90
20481;DHT22;10399;50.754;3.366;2022-09-09T02:10:18;16.80;99.90
20481;DHT22;10399;50.754;3.366;2022-09-09T02:13:09;16.70;99.90
20481;DHT22;10399;50.754;3.366;2022-09-09T02:15:56;16.70;99.90
20481;DHT22;10399;50.754;3.366;2022-09-09T02:18:28;16.70;99.90
20481;DHT22;10399;50.754;3.366;2022-09-09T02:20:58;16.70;99.90
20481;DHT22;10399;50.754;3.366;2022-09-09T02:23:26;16.80;99.90
20481;DHT22;10399;50.754;3.366;2022-09-09T02:25:56;16.80;99.90
20481;DHT22;10399;50.754;3.366;2022-09-09T02:28:27;16.90;99.90
20481;DHT22;10399;50.754;3.366;2022-09-09T02:30:56;16.80;99.90
20481;DHT22;10399;50.754;3.366;2022-09-09T02:33:28;16.70;99.90
20481;DHT22;10399;50.754;3.366;2022-09-09T02:35:58;16.80;99.90
20481;DHT22;10399;50.754;3.366;2022-09-09T02:38:35;16.80;99.90
20481;DHT22;10399;50.754;3.366;2022-09-09T02:41:03;16.80;99.90
20481;DHT22;10399;50.754;3.366;2022-09-09T02:43:34;16.90;99.90
20481;DHT22;10399;50.754;3.366;2022-09-09T02:46:34;16.90;99.90
20481;DHT22;10399;50.754;3.366;2022-09-09T02:52:01;16.70;99.90
20481;DHT22;10399;50.754;3.366;2022-09-09T02:54:34;16.80;99.90
20481;DHT22;10399;50.754;3.366;2022-09-09T02:57:25;16.80;99.90
20481;DHT22;10399;50.754;3.366;2022-09-09T02:59:52;16.80;99.90
20481;DHT22;10399;50.754;3.366;2022-09-09T03:02:19;16.70;99.90
20481;DHT22;10399;50.754;3.366;2022-09-09T03:04:46;16.70;99.90
20481;DHT22;10399;50.754;3.366;2022-09-09T03:07:18;16.70;99.90
20481;DHT22;10399;50.754;3.366;2022-09-09T03:09:45;16.70;99.90
20481;DHT22;10399;50.754;3.366;2022-09-09T03:12:13;16.60;99.90
20481;DHT22;10399;50.754;3.366;2022-09-09T03:14:39;16.70;99.90
20481;DHT22;10399;50.754;3.366;2022-09-09T03:17:06;16.70;99.90
20481;DHT22;10399;50.754;3.366;2022-09-09T03:19:33;16.70;99.90
20481;DHT22;10399;50.754;3.366;2022-09-09T03:22:02;16.80;99.90
20481;DHT22;10399;50.754;3.366;2022-09-09T03:24:30;16.80;99.90
20481;DHT22;10399;50.754;3.366;2022-09-09T03:26:57;16.90;99.90
20481;DHT22;10399;50.754;3.366;2022-09-09T03:29:24;17.00;99.90
20481;DHT22;10399;50.754;3.366;2022-09-09T03:31:51;17.10;99.90
20481;DHT22;10399;50.754;3.366;2022-09-09T03:34:18;17.20;99.90
20481;DHT22;10399;50.754;3.366;2022-09-09T03:36:45;17.10;99.90
20481;DHT22;10399;50.754;3.366;2022-09-09T03:39:12;17.00;99.90
20481;DHT22;10399;50.754;3.366;2022-09-09T03:41:41;17.00;99.90
20481;DHT22;10399;50.754;3.366;2022-09-09T03:44:08;16.90;99.90
20481;DHT22;10399;50.754;3.366;2022-09-09T03:46:35;16.90;99.90
20481;DHT22;10399;50.754;3.366;2022-09-09T03:49:02;16.90;99.90
20481;DHT22;10399;50.754;3.366;2022-09-09T03:51:29;16.90;99.90
20481;DHT22;10399;50.754;3.366;2022-09-09T03:53:58;16.80;99.90
20481;DHT22;10399;50.754;3.366;2022-09-09T03:56:25;16.80;99.90
20481;DHT22;10399;50.754;3.366;2022-09-09T03:58:52;17.00;99.90
20481;DHT22;10399;50.754;3.366;2022-09-09T04:01:19;16.80;99.90
20481;DHT22;10399;50.754;3.366;2022-09-09T04:03:46;16.70;99.90
20481;DHT22;10399;50.754;3.366;2022-09-09T04:06:13;16.80;99.90
20481;DHT22;10399;50.754;3.366;2022-09-09T04:08:41;16.80;99.90
20481;DHT22;10399;50.754;3.366;2022-09-09T04:11:09;16.90;99.90
20481;DHT22;10399;50.754;3.366;2022-09-09T04:13:37;16.90;99.90
20481;DHT22;10399;50.754;3.366;2022-09-09T04:16:06;16.80;99.90
20481;DHT22;10399;50.754;3.366;2022-09-09T04:18:33;16.80;99.90
20481;DHT22;10399;50.754;3.366;2022-09-09T04:21:01;16.80;99.90
20481;DHT22;10399;50.754;3.366;2022-09-09T04:23:30;16.80;99.90
20481;DHT22;10399;50.754;3.366;2022-09-09T04:25:58;16.70;99.90
20481;DHT22;10399;50.754;3.366;2022-09-09T04:28:28;16.90;99.90
20481;DHT22;10399;50.754;3.366;2022-09-09T04:30:56;16.80;99.90
20481;DHT22;10399;50.754;3.366;2022-09-09T04:33:26;16.90;99.90
20481;DHT22;10399;50.754;3.366;2022-09-09T04:35:56;16.80;99.90
20481;DHT22;10399;50.754;3.366;2022-09-09T04:38:23;16.90;99.90
20481;DHT22;10399;50.754;3.366;2022-09-09T04:40:51;16.80;99.90
20481;DHT22;10399;50.754;3.366;2022-09-09T04:43:18;16.80;99.90
20481;DHT22;10399;50.754;3.366;2022-09-09T04:45:47;16.80;99.90
20481;DHT22;10399;50.754;3.366;2022-09-09T04:48:15;16.90;99.90
20481;DHT22;10399;50.754;3.366;2022-09-09T04:50:42;16.90;99.90
20481;DHT22;10399;50.754;3.366;2022-09-09T04:53:09;16.80;99.90
20481;DHT22;10399;50.754;3.366;2022-09-09T04:55:37;16.90;99.90
20481;DHT22;10399;50.754;3.366;2022-09-09T04:58:06;16.90;99.90
20481;DHT22;10399;50.754;3.366;2022-09-09T05:00:34;16.80;99.90
20481;DHT22;10399;50.754;3.366;2022-09-09T05:03:04;17.00;99.90
20481;DHT22;10399;50.754;3.366;2022-09-09T05:05:33;17.00;99.90
20481;DHT22;10399;50.754;3.366;2022-09-09T05:08:04;16.90;99.90
20481;DHT22;10399;50.754;3.366;2022-09-09T05:10:33;16.80;99.90
20481;DHT22;10399;50.754;3.366;2022-09-09T05:13:00;16.80;99.90
20481;DHT22;10399;50.754;3.366;2022-09-09T05:15:27;16.80;99.90
20481;DHT22;10399;50.754;3.366;2022-09-09T05:18:00;16.70;99.90
20481;DHT22;10399;50.754;3.366;2022-09-09T05:20:28;16.80;99.90
20481;DHT22;10399;50.754;3.366;2022-09-09T05:22:56;16.70;99.90
20481;DHT22;10399;50.754;3.366;2022-09-09T05:25:23;16.80;99.90
20481;DHT22;10399;50.754;3.366;2022-09-09T05:27:52;16.80;99.90
20481;DHT22;10399;50.754;3.366;2022-09-09T05:30:21;16.80;99.90
20481;DHT22;10399;50.754;3.366;2022-09-09T05:32:49;16.80;99.90
20481;DHT22;10399;50.754;3.366;2022-09-09T05:35:16;16.80;99.90
20481;DHT22;10399;50.754;3.366;2022-09-09T05:37:44;16.90;99.90
20481;DHT22;10399;50.754;3.366;2022-09-09T05:40:13;16.90;99.90
20481;DHT22;10399;50.754;3.366;2022-09-09T05:42:40;16.80;99.90
20481;DHT22;10399;50.754;3.366;2022-09-09T05:45:08;16.80;99.90
20481;DHT22;10399;50.754;3.366;2022-09-09T05:47:36;16.80;99.90
20481;DHT22;10399;50.754;3.366;2022-09-09T05:50:04;16.80;99.90
20481;DHT22;10399;50.754;3.366;2022-09-09T05:52:31;16.70;99.90
20481;DHT22;10399;50.754;3.366;2022-09-09T05:54:59;16.80;99.90
20481;DHT22;10399;50.754;3.366;2022-09-09T05:57:26;16.80;99.90
20481;DHT22;10399;50.754;3.366;2022-09-09T05:59:53;16.80;99.90
20481;DHT22;10399;50.754;3.366;2022-09-09T06:02:20;16.80;99.90
20481;DHT22;10399;50.754;3.366;2022-09-09T06:04:47;16.70;99.90
20481;DHT22;10399;50.754;3.366;2022-09-09T06:07:14;16.80;99.90
20481;DHT22;10399;50.754;3.366;2022-09-09T06:09:41;16.70;99.90
20481;DHT22;10399;50.754;3.366;2022-09-09T06:12:08;16.80;99.90
20481;DHT22;10399;50.754;3.366;2022-09-09T06:14:35;16.80;99.90
20481;DHT22;10399;50.754;3.366;2022-09-09T06:17:03;16.80;99.90
20481;DHT22;10399;50.754;3.366;2022-09-09T06:19:31;16.80;99.90
20481;DHT22;10399;50.754;3.366;2022-09-09T06:21:58;16.90;99.90
20481;DHT22;10399;50.754;3.366;2022-09-09T06:24:26;16.90;99.90
20481;DHT22;10399;50.754;3.366;2022-09-09T06:26:53;16.90;99.90
20481;DHT22;10399;50.754;3.366;2022-09-09T06:29:20;16.90;99.90
20481;DHT22;10399;50.754;3.366;2022-09-09T06:31:47;16.90;99.90
20481;DHT22;10399;50.754;3.366;2022-09-09T06:34:14;16.90;99.90
20481;DHT22;10399;50.754;3.366;2022-09-09T06:36:42;16.90;99.90
20481;DHT22;10399;50.754;3.366;2022-09-09T06:39:09;16.70;99.90
20481;DHT22;10399;50.754;3.366;2022-09-09T06:41:40;16.80;99.90
20481;DHT22;10399;50.754;3.366;2022-09-09T06:44:09;16.80;99.90
20481;DHT22;10399;50.754;3.366;2022-09-09T06:46:38;16.80;99.90
20481;DHT22;10399;50.754;3.366;2022-09-09T06:49:08;16.80;99.90
20481;DHT22;10399;50.754;3.366;2022-09-09T06:51:37;16.90;99.90
20481;DHT22;10399;50.754;3.366;2022-09-09T06:54:11;17.00;99.90
20481;DHT22;10399;50.754;3.366;2022-09-09T06:56:40;16.80;99.90
20481;DHT22;10399;50.754;3.366;2022-09-09T06:59:09;16.70;99.90
20481;DHT22;10399;50.754;3.366;2022-09-09T07:01:39;16.50;99.90
20481;DHT22;10399;50.754;3.366;2022-09-09T07:04:10;16.40;99.90
20481;DHT22;10399;50.754;3.366;2022-09-09T07:06:40;16.40;99.90
20481;DHT22;10399;50.754;3.366;2022-09-09T07:09:12;16.40;99.90
20481;DHT22;10399;50.754;3.366;2022-09-09T07:11:43;16.30;99.90
20481;DHT22;10399;50.754;3.366;2022-09-09T07:14:10;16.30;99.90
20481;DHT22;10399;50.754;3.366;2022-09-09T07:16:42;16.20;99.90
20481;DHT22;10399;50.754;3.366;2022-09-09T07:19:10;16.30;99.90
20481;DHT22;10399;50.754;3.366;2022-09-09T07:21:37;16.20;99.90
20481;DHT22;10399;50.754;3.366;2022-09-09T07:24:04;16.20;99.90
20481;DHT22;10399;50.754;3.366;2022-09-09T07:26:34;16.20;99.90
20481;DHT22;10399;50.754;3.366;2022-09-09T07:29:01;16.20;99.90
20481;DHT22;10399;50.754;3.366;2022-09-09T07:31:31;16.20;99.90
20481;DHT22;10399;50.754;3.366;2022-09-09T07:33:59;16.30;99.90
20481;DHT22;10399;50.754;3.366;2022-09-09T07:36:31;16.20;99.90
20481;DHT22;10399;50.754;3.366;2022-09-09T07:39:08;16.30;99.90
20481;DHT22;10399;50.754;3.366;2022-09-09T07:41:38;16.20;99.90
20481;DHT22;10399;50.754;3.366;2022-09-09T07:44:08;16.20;99.90
20481;DHT22;10399;50.754;3.366;2022-09-09T07:46:36;16.10;99.90
20481;DHT22;10399;50.754;3.366;2022-09-09T07:49:03;16.10;99.90
20481;DHT22;10399;50.754;3.366;2022-09-09T07:51:34;16.20;99.90
20481;DHT22;10399;50.754;3.366;2022-09-09T07:54:04;16.20;99.90
20481;DHT22;10399;50.754;3.366;2022-09-09T07:56:32;16.30;99.90
20481;DHT22;10399;50.754;3.366;2022-09-09T07:59:00;16.30;99.90
20481;DHT22;10399;50.754;3.366;2022-09-09T08:01:36;16.30;99.90
20481;DHT22;10399;50.754;3.366;2022-09-09T08:04:11;16.30;99.90
20481;DHT22;10399;50.754;3.366;2022-09-09T08:06:47;16.40;99.90
20481;DHT22;10399;50.754;3.366;2022-09-09T08:09:15;16.50;99.90
20481;DHT22;10399;50.754;3.366;2022-09-09T08:11:43;16.40;99.90
20481;DHT22;10399;50.754;3.366;2022-09-09T08:14:11;16.40;99.90
20481;DHT22;10399;50.754;3.366;2022-09-09T08:16:44;16.50;99.90
20481;DHT22;10399;50.754;3.366;2022-09-09T08:19:12;16.50;99.90
20481;DHT22;10399;50.754;3.366;2022-09-09T08:21:40;16.40;99.90
20481;DHT22;10399;50.754;3.366;2022-09-09T08:24:08;16.50;99.90
20481;DHT22;10399;50.754;3.366;2022-09-09T08:26:39;16.50;99.90
20481;DHT22;10399;50.754;3.366;2022-09-09T08:29:09;16.60;99.90
20481;DHT22;10399;50.754;3.366;2022-09-09T08:31:52;16.50;99.90
20481;DHT22;10399;50.754;3.366;2022-09-09T08:34:21;16.60;99.90
20481;DHT22;10399;50.754;3.366;2022-09-09T08:36:49;16.60;99.90
20481;DHT22;10399;50.754;3.366;2022-09-09T08:39:18;16.60;99.90
20481;DHT22;10399;50.754;3.366;2022-09-09T08:47:39;16.60;99.90
20481;DHT22;10399;50.754;3.366;2022-09-09T08:53:17;16.70;99.90
20481;DHT22;10399;50.754;3.366;2022-09-09T08:58:21;16.70;99.90
20481;DHT22;10399;50.754;3.366;2022-09-09T09:11:23;17.10;99.90
20481;DHT22;10399;50.754;3.366;2022-09-09T09:14:11;17.20;99.90
20481;DHT22;10399;50.754;3.366;2022-09-09T09:16:49;17.30;99.90
20481;DHT22;10399;50.754;3.366;2022-09-09T09:19:17;17.30;99.90
20481;DHT22;10399;50.754;3.366;2022-09-09T09:21:59;17.30;99.90
20481;DHT22;10399;50.754;3.366;2022-09-09T09:27:12;17.20;99.90
20481;DHT22;10399;50.754;3.366;2022-09-09T09:29:40;17.30;99.90
20481;DHT22;10399;50.754;3.366;2022-09-09T09:32:33;17.20;99.90
20481;DHT22;10399;50.754;3.366;2022-09-09T09:35:02;17.20;99.90
20481;DHT22;10399;50.754;3.366;2022-09-09T09:37:35;17.20;99.90
20481;DHT22;10399;50.754;3.366;2022-09-09T09:40:19;17.20;99.90
20481;DHT22;10399;50.754;3.366;2022-09-09T09:42:54;17.20;99.90
20481;DHT22;10399;50.754;3.366;2022-09-09T09:45:34;17.30;99.90
20481;DHT22;10399;50.754;3.366;2022-09-09T09:48:02;17.40;99.90
20481;DHT22;10399;50.754;3.366;2022-09-09T09:50:34;17.40;99.90
20481;DHT22;10399;50.754;3.366;2022-09-09T09:53:05;17.40;99.90
20481;DHT22;10399;50.754;3.366;2022-09-09T09:55:35;17.30;99.90
20481;DHT22;10399;50.754;3.366;2022-09-09T09:58:13;17.40;99.90
20481;DHT22;10399;50.754;3.366;2022-09-09T10:00:49;17.50;99.90
20481;DHT22;10399;50.754;3.366;2022-09-09T10:03:29;17.50;99.90
20481;DHT22;10399;50.754;3.366;2022-09-09T10:05:57;17.50;99.90
20481;DHT22;10399;50.754;3.366;2022-09-09T10:08:26;17.50;99.90
20481;DHT22;10399;50.754;3.366;2022-09-09T10:11:19;17.60;99.90
20481;DHT22;10399;50.754;3.366;2022-09-09T10:19:32;17.80;99.90
20481;DHT22;10399;50.754;3.366;2022-09-09T10:30:19;17.80;99.90
20481;DHT22;10399;50.754;3.366;2022-09-09T10:35:29;17.90;99.90
20481;DHT22;10399;50.754;3.366;2022-09-09T10:40:38;17.90;99.90
20481;DHT22;10399;50.754;3.366;2022-09-09T10:52:04;17.70;99.90
20481;DHT22;10399;50.754;3.366;2022-09-09T10:57:47;17.70;99.90
20481;DHT22;10399;50.754;3.366;2022-09-09T11:02:58;17.90;99.90
20481;DHT22;10399;50.754;3.366;2022-09-09T11:08:13;18.30;99.90
20481;DHT22;10399;50.754;3.366;2022-09-09T11:11:04;18.20;99.90
20481;DHT22;10399;50.754;3.366;2022-09-09T11:16:22;18.00;99.90
20481;DHT22;10399;50.754;3.366;2022-09-09T11:24:53;17.90;99.90
20481;DHT22;10399;50.754;3.366;2022-09-09T11:28:06;17.80;99.90
20481;DHT22;10399;50.754;3.366;2022-09-09T11:38:51;18.10;99.90
20481;DHT22;10399;50.754;3.366;2022-09-09T11:41:20;18.20;99.90
20481;DHT22;10399;50.754;3.366;2022-09-09T11:43:50;18.30;99.90
20481;DHT22;10399;50.754;3.366;2022-09-09T11:46:21;18.60;99.90
20481;DHT22;10399;50.754;3.366;2022-09-09T11:49:04;18.60;99.90
20481;DHT22;10399;50.754;3.366;2022-09-09T11:51:33;18.70;99.90
20481;DHT22;10399;50.754;3.366;2022-09-09T11:54:03;18.60;99.90
20481;DHT22;10399;50.754;3.366;2022-09-09T11:56:49;18.60;99.90
20481;DHT22;10399;50.754;3.366;2022-09-09T11:59:25;18.60;99.90
20481;DHT22;10399;50.754;3.366;2022-09-09T12:06:54;19.20;99.90
20481;DHT22;10399;50.754;3.366;2022-09-09T12:12:22;19.50;99.90
20481;DHT22;10399;50.754;3.366;2022-09-09T12:15:46;19.70;99.90
20481;DHT22;10399;50.754;3.366;2022-09-09T12:17:52;19.80;99.90
20481;DHT22;10399;50.754;3.366;2022-09-09T12:20:38;19.60;99.90
20481;DHT22;10399;50.754;3.366;2022-09-09T12:29:28;19.40;99.90
20481;DHT22;10399;50.754;3.366;2022-09-09T12:32:02;19.40;99.90
20481;DHT22;10399;50.754;3.366;2022-09-09T12:34:38;19.40;99.90
20481;DHT22;10399;50.754;3.366;2022-09-09T12:37:14;19.20;99.90
20481;DHT22;10399;50.754;3.366;2022-09-09T12:39:53;19.00;99.90
20481;DHT22;10399;50.754;3.366;2022-09-09T12:42:22;18.90;99.90
20481;DHT22;10399;50.754;3.366;2022-09-09T12:45:01;18.90;99.90
20481;DHT22;10399;50.754;3.366;2022-09-09T12:47:43;18.80;99.90
20481;DHT22;10399;50.754;3.366;2022-09-09T12:50:30;18.80;99.90
20481;DHT22;10399;50.754;3.366;2022-09-09T12:53:25;18.70;99.90
20481;DHT22;10399;50.754;3.366;2022-09-09T12:56:02;18.80;99.90
20481;DHT22;10399;50.754;3.366;2022-09-09T12:58:31;19.00;99.90
20481;DHT22;10399;50.754;3.366;2022-09-09T13:01:03;19.20;99.90
20481;DHT22;10399;50.754;3.366;2022-09-09T13:03:33;19.20;99.90
20481;DHT22;10399;50.754;3.366;2022-09-09T13:06:24;19.30;99.90
20481;DHT22;10399;50.754;3.366;2022-09-09T13:08:58;19.70;99.90
20481;DHT22;10399;50.754;3.366;2022-09-09T13:11:45;19.70;99.90
20481;DHT22;10399;50.754;3.366;2022-09-09T13:14:29;19.70;99.90
20481;DHT22;10399;50.754;3.366;2022-09-09T13:16:59;20.10;99.90
20481;DHT22;10399;50.754;3.366;2022-09-09T13:19:30;20.10;99.90
20481;DHT22;10399;50.754;3.366;2022-09-09T13:21:59;20.10;99.90
20481;DHT22;10399;50.754;3.366;2022-09-09T13:24:34;19.90;99.90
20481;DHT22;10399;50.754;3.366;2022-09-09T13:29:54;20.40;99.90
20481;DHT22;10399;50.754;3.366;2022-09-09T13:32:24;20.30;99.90
20481;DHT22;10399;50.754;3.366;2022-09-09T13:34:56;20.10;99.90
20481;DHT22;10399;50.754;3.366;2022-09-09T13:37:36;20.00;99.90
20481;DHT22;10399;50.754;3.366;2022-09-09T13:40:05;20.20;99.90
20481;DHT22;10399;50.754;3.366;2022-09-09T13:42:39;20.00;99.90
20481;DHT22;10399;50.754;3.366;2022-09-09T13:45:18;19.80;99.90
20481;DHT22;10399;50.754;3.366;2022-09-09T13:47:49;19.70;99.90
20481;DHT22;10399;50.754;3.366;2022-09-09T13:50:29;19.80;99.90
20481;DHT22;10399;50.754;3.366;2022-09-09T13:52:58;20.00;99.90
20481;DHT22;10399;50.754;3.366;2022-09-09T13:55:27;19.90;99.90
20481;DHT22;10399;50.754;3.366;2022-09-09T14:00:29;20.10;99.90
20481;DHT22;10399;50.754;3.366;2022-09-09T14:02:57;20.00;99.90
20481;DHT22;10399;50.754;3.366;2022-09-09T14:05:24;20.00;99.90
20481;DHT22;10399;50.754;3.366;2022-09-09T14:07:51;20.30;99.90
20481;DHT22;10399;50.754;3.366;2022-09-09T14:10:19;20.40;99.90
20481;DHT22;10399;50.754;3.366;2022-09-09T14:12:46;20.50;99.90
20481;DHT22;10399;50.754;3.366;2022-09-09T14:15:13;20.40;99.90
20481;DHT22;10399;50.754;3.366;2022-09-09T14:17:41;20.30;99.90
20481;DHT22;10399;50.754;3.366;2022-09-09T14:20:09;20.30;99.90
20481;DHT22;10399;50.754;3.366;2022-09-09T14:22:38;20.40;99.90
20481;DHT22;10399;50.754;3.366;2022-09-09T14:25:06;20.60;99.90
20481;DHT22;10399;50.754;3.366;2022-09-09T14:27:33;20.80;99.90
20481;DHT22;10399;50.754;3.366;2022-09-09T14:30:00;20.70;99.90
20481;DHT22;10399;50.754;3.366;2022-09-09T14:32:27;20.80;99.90
20481;DHT22;10399;50.754;3.366;2022-09-09T14:34:55;20.60;99.90
20481;DHT22;10399;50.754;3.366;2022-09-09T14:37:22;20.50;99.90
20481;DHT22;10399;50.754;3.366;2022-09-09T14:39:50;20.50;99.90
20481;DHT22;10399;50.754;3.366;2022-09-09T14:42:17;20.30;99.90
20481;DHT22;10399;50.754;3.366;2022-09-09T14:44:45;20.30;99.90
20481;DHT22;10399;50.754;3.366;2022-09-09T14:47:13;20.30;99.90
20481;DHT22;10399;50.754;3.366;2022-09-09T14:49:40;20.30;99.90
20481;DHT22;10399;50.754;3.366;2022-09-09T14:52:12;20.50;99.90
20481;DHT22;10399;50.754;3.366;2022-09-09T14:54:40;20.60;99.90
20481;DHT22;10399;50.754;3.366;2022-09-09T14:57:07;20.50;99.90
20481;DHT22;10399;50.754;3.366;2022-09-09T14:59:34;20.50;99.90
20481;DHT22;10399;50.754;3.366;2022-09-09T15:02:01;20.40;99.90
20481;DHT22;10399;50.754;3.366;2022-09-09T15:04:31;20.20;99.90
20481;DHT22;10399;50.754;3.366;2022-09-09T15:06:58;20.30;99.90
20481;DHT22;10399;50.754;3.366;2022-09-09T15:09:25;20.50;99.90
20481;DHT22;10399;50.754;3.366;2022-09-09T15:11:52;20.60;99.90
20481;DHT22;10399;50.754;3.366;2022-09-09T15:14:19;20.80;99.90
20481;DHT22;10399;50.754;3.366;2022-09-09T15:16:50;20.70;99.90
20481;DHT22;10399;50.754;3.366;2022-09-09T15:19:17;21.00;99.90
20481;DHT22;10399;50.754;3.366;2022-09-09T15:21:44;21.20;99.90
20481;DHT22;10399;50.754;3.366;2022-09-09T15:24:11;21.30;99.90
20481;DHT22;10399;50.754;3.366;2022-09-09T15:26:40;21.60;99.90
20481;DHT22;10399;50.754;3.366;2022-09-09T15:29:07;21.50;99.90
20481;DHT22;10399;50.754;3.366;2022-09-09T15:31:35;21.40;99.90
20481;DHT22;10399;50.754;3.366;2022-09-09T15:34:05;21.30;99.90
20481;DHT22;10399;50.754;3.366;2022-09-09T15:39:02;21.30;99.90
20481;DHT22;10399;50.754;3.366;2022-09-09T15:41:29;21.40;99.90
20481;DHT22;10399;50.754;3.366;2022-09-09T15:43:59;21.40;99.90
20481;DHT22;10399;50.754;3.366;2022-09-09T15:46:34;21.40;99.90
20481;DHT22;10399;50.754;3.366;2022-09-09T15:49:18;21.40;99.90
20481;DHT22;10399;50.754;3.366;2022-09-09T15:51:51;21.50;99.90
20481;DHT22;10399;50.754;3.366;2022-09-09T15:54:21;21.70;99.90
20481;DHT22;10399;50.754;3.366;2022-09-09T15:56:53;21.70;99.90
20481;DHT22;10399;50.754;3.366;2022-09-09T15:59:25;21.30;99.90
20481;DHT22;10399;50.754;3.366;2022-09-09T16:01:52;21.00;99.90
20481;DHT22;10399;50.754;3.366;2022-09-09T16:04:20;20.90;99.90
20481;DHT22;10399;50.754;3.366;2022-09-09T16:07:01;20.80;99.90
20481;DHT22;10399;50.754;3.366;2022-09-09T16:09:28;20.50;99.90
20481;DHT22;10399;50.754;3.366;2022-09-09T16:11:57;20.40;99.90
20481;DHT22;10399;50.754;3.366;2022-09-09T16:14:25;20.20;99.90
20481;DHT22;10399;50.754;3.366;2022-09-09T16:16:52;20.10;99.90
20481;DHT22;10399;50.754;3.366;2022-09-09T16:19:20;20.20;99.90
20481;DHT22;10399;50.754;3.366;2022-09-09T16:21:49;20.20;99.90
20481;DHT22;10399;50.754;3.366;2022-09-09T16:24:18;20.20;99.90
20481;DHT22;10399;50.754;3.366;2022-09-09T16:26:51;20.20;99.90
20481;DHT22;10399;50.754;3.366;2022-09-09T16:29:19;20.20;99.90
20481;DHT22;10399;50.754;3.366;2022-09-09T16:31:46;20.20;99.90
20481;DHT22;10399;50.754;3.366;2022-09-09T16:34:16;20.00;99.90
20481;DHT22;10399;50.754;3.366;2022-09-09T16:36:44;20.00;99.90
20481;DHT22;10399;50.754;3.366;2022-09-09T16:39:13;19.90;99.90
20481;DHT22;10399;50.754;3.366;2022-09-09T16:41:42;20.00;99.90
20481;DHT22;10399;50.754;3.366;2022-09-09T16:44:12;19.90;99.90
20481;DHT22;10399;50.754;3.366;2022-09-09T16:46:41;19.80;99.90
20481;DHT22;10399;50.754;3.366;2022-09-09T16:49:12;19.80;99.90
20481;DHT22;10399;50.754;3.366;2022-09-09T16:51:47;19.70;99.90
20481;DHT22;10399;50.754;3.366;2022-09-09T16:54:16;19.60;99.90
20481;DHT22;10399;50.754;3.366;2022-09-09T16:56:46;19.40;99.90
20481;DHT22;10399;50.754;3.366;2022-09-09T16:59:18;19.50;99.90
20481;DHT22;10399;50.754;3.366;2022-09-09T17:01:48;19.60;99.90
20481;DHT22;10399;50.754;3.366;2022-09-09T17:04:17;19.50;99.90
20481;DHT22;10399;50.754;3.366;2022-09-09T17:06:48;19.50;99.90
20481;DHT22;10399;50.754;3.366;2022-09-09T17:09:16;19.50;99.90
20481;DHT22;10399;50.754;3.366;2022-09-09T17:11:44;19.40;99.90
20481;DHT22;10399;50.754;3.366;2022-09-09T17:14:15;19.20;99.90
20481;DHT22;10399;50.754;3.366;2022-09-09T17:16:43;19.30;99.90
20481;DHT22;10399;50.754;3.366;2022-09-09T17:19:11;19.20;99.90
20481;DHT22;10399;50.754;3.366;2022-09-09T17:21:39;19.10;99.90
20481;DHT22;10399;50.754;3.366;2022-09-09T17:24:27;19.00;99.90
20481;DHT22;10399;50.754;3.366;2022-09-09T17:26:56;19.20;99.90
20481;DHT22;10399;50.754;3.366;2022-09-09T17:29:24;19.20;99.90
20481;DHT22;10399;50.754;3.366;2022-09-09T17:31:54;19.30;99.90
20481;DHT22;10399;50.754;3.366;2022-09-09T17:34:21;19.40;99.90
20481;DHT22;10399;50.754;3.366;2022-09-09T17:36:49;19.30;99.90
20481;DHT22;10399;50.754;3.366;2022-09-09T17:39:16;19.40;99.90
20481;DHT22;10399;50.754;3.366;2022-09-09T17:41:43;19.40;99.90
20481;DHT22;10399;50.754;3.366;2022-09-09T17:44:17;19.40;99.90
20481;DHT22;10399;50.754;3.366;2022-09-09T17:46:48;19.40;99.90
20481;DHT22;10399;50.754;3.366;2022-09-09T17:49:16;19.40;99.90
20481;DHT22;10399;50.754;3.366;2022-09-09T17:51:46;19.40;99.90
20481;DHT22;10399;50.754;3.366;2022-09-09T17:54:16;19.20;99.90
20481;DHT22;10399;50.754;3.366;2022-09-09T17:56:45;19.40;99.90
20481;DHT22;10399;50.754;3.366;2022-09-09T17:59:15;19.40;99.90
20481;DHT22;10399;50.754;3.366;2022-09-09T18:01:44;19.40;99.90
20481;DHT22;10399;50.754;3.366;2022-09-09T18:04:14;19.40;99.90
20481;DHT22;10399;50.754;3.366;2022-09-09T18:06:44;19.10;99.90
20481;DHT22;10399;50.754;3.366;2022-09-09T18:09:17;19.10;99.90
20481;DHT22;10399;50.754;3.366;2022-09-09T18:11:47;19.30;99.90
20481;DHT22;10399;50.754;3.366;2022-09-09T18:14:29;19.10;99.90
20481;DHT22;10399;50.754;3.366;2022-09-09T18:16:58;19.10;99.90
20481;DHT22;10399;50.754;3.366;2022-09-09T18:19:27;19.00;99.90